Largo — PFNC — position and weather

sailwx.info

Track history (hours):
 
Tides and Currents Weather Stations Pressure Air Temp Water Temp Dewpoint Dewpoint Depression Visibility Wind Speed Wind Dir Waves Ship Positions

Largo

Last reported at 2016-Jun-29 06:33 UTC. Time now 2016-Jun-29 07:31 UTC.
Position N 37°12' E 000°37'.

Length 91 m; draft 6.6 m.

Type: Cargo ship. MMSI: 245645000.

Date/timePositionNaut miles runAvg speedWind from/ knotsBaromVisibWave heightAir tempDewpointWater temp
2016-Jun-29 06:33N 37°12' E 000°37'19 8.8
2016-Jun-29 04:24N 37°28' E 000°23'7 8.4
2016-Jun-29 03:33N 37°33' E 000°18'35 8.8
2016-Jun-28 23:33N 38°00' W 000°10'9 8.8
2016-Jun-28 22:33N 38°07' W 000°17'11 0.2
2016-Jun-26 21:16N 38°16' W 000°26'7 9.7
2016-Jun-26 20:32N 38°10' W 000°20'10 9.9
2016-Jun-26 19:31N 38°03' W 000°12'31 9.4
2016-Jun-26 16:15N 37°38' E 000°12'7 9.3
2016-Jun-26 15:31N 37°33' E 000°17'46 9.2
2016-Jun-26 10:33N 36°57' E 000°53'33 6.5
2016-Jun-26 05:30N 36°32' E 001°19'0 0.0
2016-Jun-26 02:25N 36°32' E 001°19'0 0.0
2016-Jun-25 19:18N 36°32' E 001°19'0 0.0
2016-Jun-25 18:12N 36°32' E 001°19'0 0.0
2016-Jun-25 17:25N 36°32' E 001°19'0 0.0
2016-Jun-25 16:31N 36°32' E 001°19'0 0.0
2016-Jun-25 15:31N 36°32' E 001°19'0 0.0
2016-Jun-25 14:13N 36°32' E 001°19'0 0.0
2016-Jun-25 13:33N 36°32' E 001°19'0 0.0
2016-Jun-25 10:13N 36°32' E 001°19'0 0.0
2016-Jun-25 09:19N 36°32' E 001°19'0 0.0
2016-Jun-25 08:25N 36°32' E 001°19'0 0.0
2016-Jun-25 07:30N 36°32' E 001°19'0 0.0
2016-Jun-25 06:30N 36°32' E 001°19'0 0.0
2016-Jun-25 05:24N 36°32' E 001°19'0 0.0
2016-Jun-25 04:25N 36°32' E 001°19'0 0.0
2016-Jun-25 02:19N 36°32' E 001°19'0 0.0
2016-Jun-25 01:31N 36°32' E 001°19'0 0.0
2016-Jun-25 00:31N 36°32' E 001°19'0 0.0
2016-Jun-24 23:31N 36°32' E 001°19'0 0.0
2016-Jun-24 22:25N 36°32' E 001°19'0 0.0
2016-Jun-24 21:31N 36°32' E 001°19'0 0.0
2016-Jun-24 20:33N 36°32' E 001°19'0 0.0
2016-Jun-24 19:30N 36°32' E 001°19'0 0.0
2016-Jun-24 18:30N 36°32' E 001°19'0 0.0
2016-Jun-24 17:33N 36°32' E 001°19'0 0.0
2016-Jun-24 16:33N 36°32' E 001°19'0 0.0
2016-Jun-24 15:31N 36°32' E 001°19'0 0.0
2016-Jun-24 14:19N 36°32' E 001°19'0 0.0
2016-Jun-24 12:25N 36°32' E 001°19'0 0.0
2016-Jun-24 11:25N 36°32' E 001°19'0 0.0
2016-Jun-24 10:33N 36°32' E 001°19'0 0.0
2016-Jun-24 09:33N 36°32' E 001°19'0 0.0
2016-Jun-24 08:33N 36°32' E 001°19'0 0.0
2016-Jun-24 07:18N 36°32' E 001°19'0 0.0
2016-Jun-24 03:13N 36°32' E 001°19'0 0.0
2016-Jun-24 02:25N 36°32' E 001°19'0 0.0
2016-Jun-24 01:25N 36°32' E 001°19'0 0.0
2016-Jun-23 23:31N 36°32' E 001°19'0 0.0
2016-Jun-23 22:30N 36°32' E 001°19'0 0.0
2016-Jun-23 21:12N 36°32' E 001°19'0 0.0
2016-Jun-23 20:24N 36°32' E 001°19'0 0.0
2016-Jun-23 18:31N 36°32' E 001°19'0 0.0
2016-Jun-23 17:19N 36°32' E 001°19'0 0.0
2016-Jun-23 16:31N 36°32' E 001°19'0 0.0
2016-Jun-23 15:31N 36°32' E 001°19'0 0.0
2016-Jun-23 14:19N 36°32' E 001°19'1 0.0
2016-Jun-22 19:25N 36°32' E 001°18'6 7.2
2016-Jun-22 18:33N 36°38' E 001°15'8 8.4
2016-Jun-22 17:33N 36°46' E 001°13'8 8.3
2016-Jun-22 16:32N 36°54' E 001°10'8 8.4
2016-Jun-22 15:33N 37°02' E 001°08'26 8.4
2016-Jun-22 12:27N 37°27' E 000°60'8 8.4
2016-Jun-22 11:33N 37°34' E 000°57'44 8.5
2016-Jun-22 06:23N 38°17' E 000°44'  
2016-Jun-19 19:31N 39°19' E 001°22'11 8.0
2016-Jun-19 18:08N 39°13' E 001°34'5 8.0
2016-Jun-19 17:33N 39°10' E 001°39'8 8.1
2016-Jun-19 16:33N 39°05' E 001°47'9 8.2
2016-Jun-19 15:26N 38°59' E 001°56'7 8.2
2016-Jun-19 14:33N 38°54' E 002°03'8 8.1
2016-Jun-19 13:33N 38°49' E 002°11'8 8.1
2016-Jun-19 12:33N 38°44' E 002°18'9 8.2
2016-Jun-19 11:25N 38°37' E 002°27'7 8.2
2016-Jun-19 10:31N 38°33' E 002°35'9 8.0
2016-Jun-19 09:27N 38°27' E 002°43'  
Track history (hours):
 
Tides and Currents Weather Stations Pressure Air Temp Water Temp Dewpoint Dewpoint Depression Visibility Wind Speed Wind Dir Waves Ship Positions

Largo

Last reported at 2016-Jun-29 06:33 UTC. Time now 2016-Jun-29 07:31 UTC.
Position N 37°12' E 000°37'.

Length 91 m; draft 6.6 m.

Type: Cargo ship. MMSI: 245645000.

Date/timePositionNaut miles runAvg speedWind from/ knotsBaromVisibWave heightAir tempDewpointWater temp
2016-Jun-29 06:33N 37°12' E 000°37'19 8.8
2016-Jun-29 04:24N 37°28' E 000°23'7 8.4
2016-Jun-29 03:33N 37°33' E 000°18'35 8.8
2016-Jun-28 23:33N 38°00' W 000°10'9 8.8
2016-Jun-28 22:33N 38°07' W 000°17'11 0.2
2016-Jun-26 21:16N 38°16' W 000°26'7 9.7
2016-Jun-26 20:32N 38°10' W 000°20'10 9.9
2016-Jun-26 19:31N 38°03' W 000°12'31 9.4
2016-Jun-26 16:15N 37°38' E 000°12'7 9.3
2016-Jun-26 15:31N 37°33' E 000°17'46 9.2
2016-Jun-26 10:33N 36°57' E 000°53'33 6.5
2016-Jun-26 05:30N 36°32' E 001°19'0 0.0
2016-Jun-26 02:25N 36°32' E 001°19'0 0.0
2016-Jun-25 19:18N 36°32' E 001°19'0 0.0
2016-Jun-25 18:12N 36°32' E 001°19'0 0.0
2016-Jun-25 17:25N 36°32' E 001°19'0 0.0
2016-Jun-25 16:31N 36°32' E 001°19'0 0.0
2016-Jun-25 15:31N 36°32' E 001°19'0 0.0
2016-Jun-25 14:13N 36°32' E 001°19'0 0.0
2016-Jun-25 13:33N 36°32' E 001°19'0 0.0
2016-Jun-25 10:13N 36°32' E 001°19'0 0.0
2016-Jun-25 09:19N 36°32' E 001°19'0 0.0
2016-Jun-25 08:25N 36°32' E 001°19'0 0.0
2016-Jun-25 07:30N 36°32' E 001°19'0 0.0
2016-Jun-25 06:30N 36°32' E 001°19'0 0.0
2016-Jun-25 05:24N 36°32' E 001°19'0 0.0
2016-Jun-25 04:25N 36°32' E 001°19'0 0.0
2016-Jun-25 02:19N 36°32' E 001°19'0 0.0
2016-Jun-25 01:31N 36°32' E 001°19'0 0.0
2016-Jun-25 00:31N 36°32' E 001°19'0 0.0
2016-Jun-24 23:31N 36°32' E 001°19'0 0.0
2016-Jun-24 22:25N 36°32' E 001°19'0 0.0
2016-Jun-24 21:31N 36°32' E 001°19'0 0.0
2016-Jun-24 20:33N 36°32' E 001°19'0 0.0
2016-Jun-24 19:30N 36°32' E 001°19'0 0.0
2016-Jun-24 18:30N 36°32' E 001°19'0 0.0
2016-Jun-24 17:33N 36°32' E 001°19'0 0.0
2016-Jun-24 16:33N 36°32' E 001°19'0 0.0
2016-Jun-24 15:31N 36°32' E 001°19'0 0.0
2016-Jun-24 14:19N 36°32' E 001°19'0 0.0
2016-Jun-24 12:25N 36°32' E 001°19'0 0.0
2016-Jun-24 11:25N 36°32' E 001°19'0 0.0
2016-Jun-24 10:33N 36°32' E 001°19'0 0.0
2016-Jun-24 09:33N 36°32' E 001°19'0 0.0
2016-Jun-24 08:33N 36°32' E 001°19'0 0.0
2016-Jun-24 07:18N 36°32' E 001°19'0 0.0
2016-Jun-24 03:13N 36°32' E 001°19'0 0.0
2016-Jun-24 02:25N 36°32' E 001°19'0 0.0
2016-Jun-24 01:25N 36°32' E 001°19'0 0.0
2016-Jun-23 23:31N 36°32' E 001°19'0 0.0
2016-Jun-23 22:30N 36°32' E 001°19'0 0.0
2016-Jun-23 21:12N 36°32' E 001°19'0 0.0
2016-Jun-23 20:24N 36°32' E 001°19'0 0.0
2016-Jun-23 18:31N 36°32' E 001°19'0 0.0
2016-Jun-23 17:19N 36°32' E 001°19'0 0.0
2016-Jun-23 16:31N 36°32' E 001°19'0 0.0
2016-Jun-23 15:31N 36°32' E 001°19'0 0.0
2016-Jun-23 14:19N 36°32' E 001°19'1 0.0
2016-Jun-22 19:25N 36°32' E 001°18'6 7.2
2016-Jun-22 18:33N 36°38' E 001°15'8 8.4
2016-Jun-22 17:33N 36°46' E 001°13'8 8.3
2016-Jun-22 16:32N 36°54' E 001°10'8 8.4
2016-Jun-22 15:33N 37°02' E 001°08'26 8.4
2016-Jun-22 12:27N 37°27' E 000°60'8 8.4
2016-Jun-22 11:33N 37°34' E 000°57'44 8.5
2016-Jun-22 06:23N 38°17' E 000°44'  
2016-Jun-19 19:31N 39°19' E 001°22'11 8.0
2016-Jun-19 18:08N 39°13' E 001°34'5 8.0
2016-Jun-19 17:33N 39°10' E 001°39'8 8.1
2016-Jun-19 16:33N 39°05' E 001°47'9 8.2
2016-Jun-19 15:26N 38°59' E 001°56'7 8.2
2016-Jun-19 14:33N 38°54' E 002°03'8 8.1
2016-Jun-19 13:33N 38°49' E 002°11'8 8.1
2016-Jun-19 12:33N 38°44' E 002°18'9 8.2
2016-Jun-19 11:25N 38°37' E 002°27'7 8.2
2016-Jun-19 10:31N 38°33' E 002°35'9 8.0
2016-Jun-19 09:27N 38°27' E 002°43'  

Dump ship's entire track history